createdAt,value
2018-05-02T00:02:14.959Z,33.44
2018-05-02T00:03:15.112Z,32.86
2018-05-02T00:04:15.286Z,33.05
2018-05-02T00:05:15.446Z,32.96
2018-05-02T00:06:15.601Z,32.67
2018-05-02T00:07:15.778Z,32.57
2018-05-02T00:08:15.938Z,32.67
2018-05-02T00:09:16.098Z,32.77
2018-05-02T00:10:16.264Z,31.82
2018-05-02T00:11:16.430Z,31.15
2018-05-02T00:12:16.589Z,30.77
2018-05-02T00:13:16.761Z,30.38
2018-05-02T00:14:16.918Z,30.20
2018-05-02T00:15:17.079Z,29.92
2018-05-02T00:16:17.240Z,29.81
2018-05-02T00:18:59.793Z,30.01
2018-05-02T00:19:59.954Z,29.81
2018-05-02T00:21:00.117Z,29.62
2018-05-02T00:22:00.278Z,29.24
2018-05-02T00:23:00.439Z,29.14
2018-05-02T00:24:00.601Z,28.29
2018-05-02T00:25:00.763Z,28.19
2018-05-02T00:26:00.925Z,28.00
2018-05-02T00:27:01.092Z,26.48
2018-05-02T00:28:01.250Z,26.01
2018-05-02T00:29:01.401Z,26.48
2018-05-02T00:30:01.564Z,26.67
2018-05-02T00:31:01.724Z,26.86
2018-05-02T00:32:01.890Z,27.91
2018-05-02T00:33:02.052Z,28.48
2018-05-02T00:35:44.319Z,29.14
2018-05-02T00:36:44.477Z,29.71
2018-05-02T00:37:44.645Z,29.62
2018-05-02T00:38:44.796Z,29.24
2018-05-02T00:39:44.957Z,28.96
2018-05-02T00:40:45.103Z,28.77
2018-05-02T00:41:45.261Z,28.29
2018-05-02T00:42:45.421Z,27.53
2018-05-02T00:43:45.610Z,28.19
2018-05-02T00:44:45.760Z,27.44
2018-05-02T00:47:28.040Z,25.25
2018-05-02T00:48:28.187Z,26.29
2018-05-02T00:49:28.348Z,27.44
2018-05-02T00:50:28.511Z,27.15
2018-05-02T00:51:28.664Z,26.29
2018-05-02T00:52:28.826Z,25.44
2018-05-02T00:53:28.991Z,25.54
2018-05-02T00:54:29.153Z,25.15
2018-05-02T00:55:29.320Z,25.15
2018-05-02T00:56:29.462Z,25.15
2018-05-02T00:57:29.644Z,25.25
2018-05-02T00:58:29.813Z,25.06
2018-05-02T00:59:29.975Z,25.15
2018-05-02T01:00:30.121Z,25.15
2018-05-02T01:01:30.285Z,25.25
2018-05-02T01:04:12.859Z,22.88
2018-05-02T01:05:13.024Z,22.78
2018-05-02T01:06:13.185Z,21.06
2018-05-02T01:07:13.343Z,20.97
2018-05-02T01:08:13.505Z,20.11
2018-05-02T01:09:13.663Z,20.31
2018-05-02T01:10:13.823Z,21.35
2018-05-02T01:11:13.987Z,20.59
2018-05-02T01:12:14.145Z,20.02
2018-05-02T01:13:14.305Z,19.35
2018-05-02T01:14:14.473Z,18.31
2018-05-02T01:15:14.625Z,17.46
2018-05-02T01:16:14.787Z,16.51
2018-05-02T01:17:14.949Z,15.94
2018-05-02T01:18:15.108Z,15.28
2018-05-02T01:20:47.395Z,16.89
2018-05-02T01:21:47.559Z,17.65
2018-05-02T01:22:47.722Z,18.79
2018-05-02T01:23:47.877Z,19.73
2018-05-02T01:24:48.054Z,21.06
2018-05-02T01:25:48.194Z,21.63
2018-05-02T01:26:48.356Z,22.67
2018-05-02T01:27:48.511Z,23.05
2018-05-02T01:28:48.680Z,22.77
2018-05-02T01:29:48.830Z,22.96
2018-05-02T01:32:31.395Z,23.05
2018-05-02T01:33:31.555Z,22.58
2018-05-02T01:34:31.714Z,22.30
2018-05-02T01:35:31.872Z,21.92
2018-05-02T01:36:32.034Z,21.73
2018-05-02T01:37:32.194Z,20.68
2018-05-02T01:38:32.355Z,20.11
2018-05-02T01:39:32.513Z,19.17
2018-05-02T01:40:32.680Z,20.31
2018-05-02T01:41:32.844Z,20.02
2018-05-02T01:44:15.398Z,19.45
2018-05-02T01:45:15.560Z,19.45
2018-05-02T01:46:15.719Z,19.45
2018-05-02T01:47:15.873Z,19.26
2018-05-02T01:48:16.030Z,19.26
2018-05-02T01:49:16.194Z,19.35
2018-05-02T01:50:16.353Z,19.92
2018-05-02T01:51:16.512Z,20.31
2018-05-02T01:52:16.673Z,20.21
2018-05-02T01:53:16.837Z,20.02
2018-05-02T01:55:59.399Z,19.83
2018-05-02T01:56:59.546Z,20.40
2018-05-02T01:57:59.705Z,20.78
2018-05-02T01:58:59.873Z,20.87
2018-05-02T02:00:00.055Z,20.87
2018-05-02T02:01:00.193Z,21.15
2018-05-02T02:02:00.359Z,21.25
2018-05-02T02:03:00.520Z,21.44
2018-05-02T02:04:00.691Z,21.44
2018-05-02T02:05:00.846Z,21.63
2018-05-02T02:07:33.395Z,21.06
2018-05-02T02:08:34.147Z,20.87
2018-05-02T02:09:33.669Z,20.31
2018-05-02T02:10:33.832Z,20.21
2018-05-02T02:11:33.993Z,20.11
2018-05-02T02:12:34.164Z,21.44
2018-05-02T02:13:35.137Z,21.73
2018-05-02T02:14:34.425Z,21.54
2018-05-02T02:15:34.583Z,20.97
2018-05-02T02:16:34.745Z,21.44
2018-05-02T02:19:07.290Z,20.87
2018-05-02T02:20:07.462Z,21.06
2018-05-02T02:21:07.622Z,21.35
2018-05-02T02:22:07.782Z,20.97
2018-05-02T02:23:07.945Z,20.21
2018-05-02T02:24:08.111Z,20.21
2018-05-02T02:25:08.278Z,20.40
2018-05-02T02:26:08.429Z,20.50
2018-05-02T02:27:08.596Z,20.31
2018-05-02T02:28:08.760Z,20.10
2018-05-02T02:30:41.008Z,18.77
2018-05-02T02:31:41.164Z,18.68
2018-05-02T02:32:41.340Z,19.25
2018-05-02T02:33:41.520Z,19.25
2018-05-02T02:34:41.687Z,19.25
2018-05-02T02:35:41.842Z,19.15
2018-05-02T02:36:42.017Z,18.59
2018-05-02T02:37:42.168Z,18.30
2018-05-02T02:38:42.330Z,18.87
2018-05-02T02:39:42.491Z,18.68
2018-05-02T02:40:42.651Z,18.40
2018-05-02T02:41:42.814Z,17.45
2018-05-02T02:42:42.971Z,17.16
2018-05-02T02:43:43.136Z,17.26
2018-05-02T02:44:43.290Z,16.97
2018-05-02T02:47:25.539Z,17.73
2018-05-02T02:48:25.704Z,17.16
2018-05-02T02:49:25.861Z,17.35
2018-05-02T02:50:26.579Z,17.07
2018-05-02T02:51:26.132Z,17.54
2018-05-02T02:52:26.265Z,18.02
2018-05-02T02:53:26.427Z,18.40
2018-05-02T02:54:26.593Z,18.11
2018-05-02T02:55:26.760Z,18.02
2018-05-02T02:56:27.572Z,18.21
2018-05-02T02:59:09.200Z,18.59
2018-05-02T03:00:09.364Z,18.59
2018-05-02T03:01:09.525Z,18.87
2018-05-02T03:02:09.691Z,18.02
2018-05-02T03:03:09.857Z,17.45
2018-05-02T03:04:10.022Z,17.92
2018-05-02T03:05:10.173Z,17.45
2018-05-02T03:06:10.345Z,17.54
2018-05-02T03:07:10.514Z,17.26
2018-05-02T03:08:10.681Z,16.69
2018-05-02T03:09:10.841Z,15.55
2018-05-02T03:10:11.001Z,15.26
2018-05-02T03:11:11.151Z,15.26
2018-05-02T03:12:11.325Z,15.08
2018-05-02T03:13:11.482Z,15.45
2018-05-02T03:15:53.723Z,15.55
2018-05-02T03:16:53.900Z,15.26
2018-05-02T03:17:54.054Z,15.17
2018-05-02T03:18:54.236Z,15.55
2018-05-02T03:19:54.380Z,16.22
2018-05-02T03:20:54.545Z,15.93
2018-05-02T03:21:54.707Z,16.03
2018-05-02T03:22:54.864Z,15.93
2018-05-02T03:23:55.030Z,16.03
2018-05-02T03:24:55.184Z,16.69
2018-05-02T03:25:55.368Z,17.16
2018-05-02T03:26:55.515Z,17.35
2018-05-02T03:27:55.684Z,17.64
2018-05-02T03:28:55.847Z,17.54
2018-05-02T03:29:55.998Z,17.45
2018-05-02T03:33:36.563Z,18.77
2018-05-02T03:34:36.731Z,17.45
2018-05-02T03:35:36.894Z,17.26
2018-05-02T03:36:37.056Z,17.07
2018-05-02T03:37:37.219Z,16.22
2018-05-02T03:38:37.375Z,15.45
2018-05-02T03:39:37.548Z,15.08
2018-05-02T03:40:37.708Z,14.51
2018-05-02T03:41:37.864Z,14.12
2018-05-02T03:42:38.021Z,13.65
2018-05-02T03:43:38.182Z,13.09
2018-05-02T03:44:38.341Z,13.18
2018-05-02T03:45:38.504Z,12.90
2018-05-02T03:46:38.662Z,13.75
2018-05-02T03:47:38.817Z,13.65
2018-05-02T03:50:21.082Z,12.99
2018-05-02T03:51:21.242Z,13.56
2018-05-02T03:52:21.402Z,13.56
2018-05-02T03:53:21.563Z,13.09
2018-05-02T03:54:21.728Z,13.17
2018-05-02T03:55:21.886Z,13.09
2018-05-02T03:56:22.049Z,14.22
2018-05-02T03:57:22.219Z,14.41
2018-05-02T03:58:22.389Z,14.61
2018-05-02T03:59:22.550Z,14.61
2018-05-02T04:00:22.713Z,15.36
2018-05-02T04:01:22.873Z,16.03
2018-05-02T04:02:23.034Z,16.03
2018-05-02T04:03:23.202Z,15.55
2018-05-02T04:04:23.351Z,15.93
2018-05-02T04:07:05.873Z,15.45
2018-05-02T04:08:06.039Z,15.45
2018-05-02T04:09:06.200Z,15.64
2018-05-02T04:10:06.363Z,15.45
2018-05-02T04:11:06.514Z,15.36
2018-05-02T04:12:06.682Z,14.88
2018-05-02T04:13:06.843Z,13.56
2018-05-02T04:14:07.010Z,13.65
2018-05-02T04:15:07.160Z,13.56
2018-05-02T04:16:07.327Z,13.28
2018-05-02T04:17:07.490Z,13.27
2018-05-02T04:18:07.657Z,14.03
2018-05-02T04:19:07.816Z,14.32
2018-05-02T04:20:07.987Z,14.89
2018-05-02T04:21:08.139Z,15.36
2018-05-02T04:23:50.976Z,14.32
2018-05-02T04:24:50.874Z,13.46
2018-05-02T04:25:51.030Z,13.65
2018-05-02T04:26:51.934Z,14.13
2018-05-02T04:27:51.349Z,14.22
2018-05-02T04:28:51.517Z,13.37
2018-05-02T04:29:51.680Z,13.56
2018-05-02T04:30:58.984Z,13.09
2018-05-02T04:31:52.006Z,12.33
2018-05-02T04:32:52.172Z,13.09
2018-05-02T04:33:52.327Z,14.22
2018-05-02T04:34:52.485Z,15.36
2018-05-02T04:35:52.647Z,15.74
2018-05-02T04:36:52.807Z,16.60
2018-05-02T04:37:52.974Z,16.22
2018-05-02T04:38:53.141Z,16.78
2018-05-02T04:39:53.306Z,16.31
2018-05-02T04:40:53.463Z,17.16
2018-05-02T04:41:53.623Z,16.12
2018-05-02T04:42:53.792Z,16.12
2018-05-02T04:43:53.951Z,15.93
2018-05-02T04:44:54.110Z,15.84
2018-05-02T04:47:26.683Z,15.84
2018-05-02T04:48:26.844Z,16.22
2018-05-02T04:49:27.017Z,16.78
2018-05-02T04:50:29.897Z,16.03
2018-05-02T04:51:27.306Z,15.26
2018-05-02T04:52:27.465Z,15.45
2018-05-02T04:53:35.065Z,15.74
2018-05-02T04:54:27.839Z,15.17
2018-05-02T04:55:28.144Z,14.32
2018-05-02T04:56:28.201Z,15.36
2018-05-02T04:57:28.369Z,16.31
2018-05-02T04:58:28.523Z,0.57
2018-05-02T04:59:28.733Z,0.28
2018-05-02T05:00:28.907Z,0.00
2018-05-02T05:01:29.178Z,0.00
2018-05-02T05:02:36.604Z,0.00
2018-05-02T05:03:29.259Z,0.00
2018-05-02T05:04:29.945Z,0.00
2018-05-02T05:05:29.612Z,0.00
2018-05-02T05:06:29.768Z,0.00
2018-05-02T05:07:31.439Z,0.00
2018-05-02T05:08:30.945Z,0.00
2018-05-02T05:09:30.226Z,0.00
2018-05-02T05:10:30.395Z,0.00
2018-05-02T05:11:30.546Z,0.00
2018-05-02T05:12:30.727Z,0.00
2018-05-02T05:15:11.575Z,0.00
2018-05-02T05:16:03.596Z,0.00
2018-05-02T05:17:03.814Z,0.00
2018-05-02T05:18:04.056Z,0.00
2018-05-02T05:19:11.344Z,0.00
2018-05-02T05:20:04.379Z,0.00
2018-05-02T05:21:04.534Z,0.00
2018-05-02T05:23:36.580Z,0.00
2018-05-02T05:24:36.739Z,0.00
2018-05-02T05:25:36.906Z,0.00
2018-05-02T05:26:37.065Z,0.00
2018-05-02T05:27:37.223Z,0.00
2018-05-02T05:28:37.390Z,0.00
2018-05-02T05:29:37.549Z,0.00
2018-05-02T05:30:37.706Z,0.00
2018-05-02T05:31:37.870Z,0.00
2018-05-02T05:32:38.032Z,0.00
2018-05-02T05:35:20.897Z,0.00
2018-05-02T05:36:20.387Z,0.00
2018-05-02T05:37:20.564Z,0.00
2018-05-02T05:38:20.709Z,0.00
2018-05-02T05:39:20.870Z,0.00
2018-05-02T05:40:21.027Z,0.00
2018-05-02T05:41:21.185Z,0.00
2018-05-02T05:42:21.352Z,0.00
2018-05-02T05:43:21.525Z,0.00
2018-05-02T05:44:21.679Z,0.00
2018-05-02T05:45:29.804Z,0.00
2018-05-02T05:46:29.158Z,0.00
2018-05-02T05:47:22.066Z,0.00
2018-05-02T05:48:22.218Z,0.00
2018-05-02T05:49:22.382Z,0.00
2018-05-02T05:50:22.543Z,0.00
2018-05-02T05:51:22.706Z,0.00
2018-05-02T05:52:22.858Z,0.00
2018-05-02T05:53:23.068Z,0.00
2018-05-02T05:54:23.297Z,0.00
2018-05-02T05:55:23.405Z,0.00
2018-05-02T05:56:23.547Z,0.00
2018-05-02T05:57:23.867Z,0.00
2018-05-02T05:58:23.819Z,0.00
2018-05-02T05:59:23.977Z,0.57
2018-05-02T06:00:24.143Z,3.22
2018-05-02T06:03:06.703Z,5.41
2018-05-02T06:04:06.863Z,6.35
2018-05-02T06:05:07.084Z,5.41
2018-05-02T06:06:07.183Z,6.35
2018-05-02T06:07:07.361Z,4.36
2018-05-02T06:08:07.511Z,3.32
2018-05-02T06:09:07.667Z,4.64
2018-05-02T06:10:07.852Z,6.26
2018-05-02T06:11:08.035Z,9.59
2018-05-02T06:12:08.184Z,12.53
2018-05-02T06:13:08.346Z,13.00
2018-05-02T06:14:08.510Z,14.14
2018-05-02T06:15:08.669Z,15.29
2018-05-02T06:16:08.826Z,17.66
2018-05-02T06:17:08.989Z,10.44
2018-05-02T06:19:51.243Z,8.16
2018-05-02T06:20:51.405Z,7.68
2018-05-02T06:21:51.570Z,6.93
2018-05-02T06:22:51.715Z,4.93
2018-05-02T06:23:51.889Z,5.69
2018-05-02T06:24:52.051Z,4.27
2018-05-02T06:25:52.209Z,7.78
2018-05-02T06:26:52.376Z,7.78
2018-05-02T06:27:52.539Z,7.68
2018-05-02T06:28:52.704Z,10.35
2018-05-02T06:29:52.866Z,11.39
2018-05-02T06:30:53.029Z,13.20
2018-05-02T06:31:53.214Z,11.21
2018-05-02T06:32:53.349Z,15.39
2018-05-02T06:33:53.535Z,16.81
2018-05-02T06:36:36.048Z,14.06
2018-05-02T06:37:43.727Z,14.43
2018-05-02T06:38:36.341Z,18.71
2018-05-02T06:39:36.498Z,19.95
2018-05-02T06:40:36.659Z,20.80
2018-05-02T06:41:36.821Z,23.36
2018-05-02T06:42:36.984Z,23.46
2018-05-02T06:43:37.144Z,21.37
2018-05-02T06:44:37.296Z,20.89
2018-05-02T06:45:37.472Z,23.75
2018-05-02T06:46:37.632Z,21.76
2018-05-02T06:47:38.735Z,21.56
2018-05-02T06:50:10.057Z,22.80
2018-05-02T06:51:10.219Z,23.38
2018-05-02T06:52:10.382Z,22.71
2018-05-02T06:53:10.538Z,19.38
2018-05-02T06:54:10.719Z,22.05
2018-05-02T06:55:10.870Z,23.66
2018-05-02T06:56:11.062Z,26.89
2018-05-02T06:57:12.074Z,29.64
2018-05-02T06:58:19.411Z,29.19
2018-05-02T06:59:11.546Z,32.42
2018-05-02T07:00:11.707Z,31.47
2018-05-02T07:01:19.856Z,30.33
2018-05-02T07:02:12.029Z,30.04
2018-05-02T07:03:12.175Z,20.15
2018-05-02T07:04:12.343Z,18.35
2018-05-02T07:06:44.371Z,17.29
2018-05-02T07:07:44.533Z,16.53
2018-05-02T07:08:44.692Z,16.06
2018-05-02T07:09:44.904Z,19.86
2018-05-02T07:10:45.014Z,17.86
2018-05-02T07:11:45.171Z,16.35
2018-05-02T07:12:45.334Z,17.48
2018-05-02T07:13:45.495Z,19.01
2018-05-02T07:14:45.657Z,17.30
2018-05-02T07:15:45.818Z,16.63
2018-05-02T07:16:45.981Z,18.54
2018-05-02T07:17:46.143Z,19.87
2018-05-02T07:18:46.294Z,20.92
2018-05-02T07:19:46.462Z,22.72
2018-05-02T07:20:46.625Z,24.91
2018-05-02T07:23:18.908Z,20.92
2018-05-02T07:24:19.070Z,23.40
2018-05-02T07:25:19.224Z,28.53
2018-05-02T07:26:19.385Z,29.01
2018-05-02T07:27:19.553Z,31.48
2018-05-02T07:28:19.717Z,28.25
2018-05-02T07:29:19.885Z,32.91
2018-05-02T07:30:21.110Z,33.10
2018-05-02T07:31:20.226Z,36.93
2018-05-02T07:32:20.378Z,35.40
2018-05-02T07:33:20.535Z,35.77
2018-05-02T07:34:20.704Z,30.54
2018-05-02T07:35:20.867Z,30.07
2018-05-02T07:36:21.030Z,35.78
2018-05-02T07:37:21.922Z,34.91
2018-05-02T07:39:53.769Z,39.87
2018-05-02T07:40:53.928Z,41.97
2018-05-02T07:41:54.095Z,40.64
2018-05-02T07:42:54.255Z,39.31
2018-05-02T07:43:54.447Z,35.21
2018-05-02T07:44:54.602Z,37.21
2018-05-02T07:45:54.774Z,38.83
2018-05-02T07:46:54.937Z,41.69
2018-05-02T07:47:55.095Z,42.35
2018-05-02T07:48:55.269Z,43.87
2018-05-02T07:49:55.431Z,45.70
2018-05-02T07:50:55.595Z,45.99
2018-05-02T07:51:55.757Z,46.47
2018-05-02T07:52:55.920Z,50.87
2018-05-02T07:53:56.084Z,54.88
2018-05-02T07:56:38.345Z,57.54
2018-05-02T07:57:38.506Z,54.30
2018-05-02T07:58:38.669Z,55.07
2018-05-02T07:59:38.839Z,50.97
2018-05-02T08:00:39.007Z,56.30
2018-05-02T08:01:39.172Z,59.00
2018-05-02T08:02:39.331Z,61.76
2018-05-02T08:03:39.940Z,62.81
2018-05-02T08:04:39.652Z,67.00
2018-05-02T08:05:39.816Z,62.52
2018-05-02T08:06:39.984Z,64.05
2018-05-02T08:07:40.154Z,63.10
2018-05-02T08:08:40.319Z,60.62
2018-05-02T08:09:40.489Z,65.10
2018-05-02T08:10:40.663Z,61.00
2018-05-02T08:13:12.931Z,64.72
2018-05-02T08:14:13.085Z,62.91
2018-05-02T08:15:13.249Z,65.10
2018-05-02T08:16:13.416Z,62.62
2018-05-02T08:17:13.634Z,60.36
2018-05-02T08:18:13.688Z,67.61
2018-05-02T08:19:13.853Z,68.76
2018-05-02T08:20:14.026Z,73.52
2018-05-02T08:21:14.202Z,73.72
2018-05-02T08:22:14.361Z,73.62
2018-05-02T08:23:14.520Z,70.76
2018-05-02T08:24:14.684Z,68.95
2018-05-02T08:25:14.850Z,71.62
2018-05-02T08:26:15.021Z,72.86
2018-05-02T08:27:15.184Z,71.72
2018-05-02T08:29:57.502Z,69.27
2018-05-02T08:30:57.664Z,73.47
2018-05-02T08:31:57.826Z,70.26
2018-05-02T08:32:58.110Z,81.14
2018-05-02T08:33:58.189Z,80.57
2018-05-02T08:34:58.347Z,82.86
2018-05-02T08:35:58.506Z,84.29
2018-05-02T08:36:58.665Z,85.53
2018-05-02T08:37:58.829Z,86.30
2018-05-02T08:38:59.056Z,80.38
2018-05-02T08:41:41.577Z,89.87
2018-05-02T08:42:41.745Z,89.78
2018-05-02T08:43:41.938Z,89.30
2018-05-02T08:44:42.109Z,88.82
2018-05-02T08:45:42.260Z,85.19
2018-05-02T08:46:42.422Z,91.21
2018-05-02T08:47:42.587Z,92.21
2018-05-02T08:48:43.296Z,92.50
2018-05-02T08:49:42.951Z,91.64
2018-05-02T08:50:43.116Z,91.88
2018-05-02T08:53:15.384Z,92.79
2018-05-02T08:54:15.551Z,92.59
2018-05-02T08:55:15.707Z,91.97
2018-05-02T08:56:24.906Z,91.83
2018-05-02T08:57:16.103Z,92.21
2018-05-02T08:58:16.263Z,92.30
2018-05-02T08:59:16.435Z,92.21
2018-05-02T09:00:16.601Z,93.79
2018-05-02T09:01:16.766Z,92.54
2018-05-02T09:02:16.933Z,91.88
2018-05-02T09:03:17.161Z,92.83
2018-05-02T09:04:17.304Z,89.43
2018-05-02T09:05:17.473Z,90.77
2018-05-02T09:06:17.668Z,86.80
2018-05-02T09:07:17.833Z,86.80
2018-05-02T09:08:17.998Z,82.45
2018-05-02T09:09:18.170Z,82.60
2018-05-02T09:10:18.325Z,89.43
2018-05-02T09:13:00.905Z,72.31
2018-05-02T09:14:01.066Z,66.63
2018-05-02T09:15:01.225Z,68.55
2018-05-02T09:16:01.414Z,67.97
2018-05-02T09:17:01.550Z,68.64
2018-05-02T09:18:01.716Z,74.76
2018-05-02T09:19:01.926Z,77.72
2018-05-02T09:20:01.987Z,74.09
2018-05-02T09:21:02.153Z,68.10
2018-05-02T09:22:02.317Z,62.17
2018-05-02T09:23:02.479Z,55.19
2018-05-02T09:24:02.649Z,52.99
2018-05-02T09:25:02.817Z,51.56
2018-05-02T09:26:02.981Z,53.08
2018-05-02T09:27:03.242Z,68.29
2018-05-02T09:31:13.742Z,49.09
2018-05-02T09:32:13.913Z,48.33
2018-05-02T09:33:14.079Z,47.94
2018-05-02T09:34:14.247Z,48.16
2018-05-02T09:35:14.414Z,47.37
2018-05-02T09:36:14.566Z,48.23
2018-05-02T09:37:14.742Z,49.19
2018-05-02T09:38:14.909Z,50.91
2018-05-02T09:39:15.075Z,49.19
2018-05-02T09:40:15.245Z,52.73
2018-05-02T09:41:15.404Z,51.01
2018-05-02T09:42:15.642Z,49.09
2018-05-02T09:43:15.703Z,51.75
2018-05-02T09:44:15.872Z,52.42
2018-05-02T09:45:16.038Z,52.89
2018-05-02T09:47:58.984Z,52.83
2018-05-02T09:48:58.969Z,50.62
2018-05-02T09:49:59.139Z,49.19
2018-05-02T09:50:59.312Z,50.05
2018-05-02T09:51:59.502Z,51.07
2018-05-02T09:52:59.646Z,51.27
2018-05-02T09:53:59.807Z,48.78
2018-05-02T09:54:59.973Z,47.63
2018-05-02T09:56:00.151Z,47.63
2018-05-02T09:57:00.326Z,47.82
2018-05-02T09:58:00.491Z,47.92
2018-05-02T09:59:00.702Z,51.75
2018-05-02T10:00:00.903Z,47.92
2018-05-02T10:01:01.086Z,47.73
2018-05-02T10:02:01.830Z,46.20
2018-05-02T10:04:43.791Z,44.95
2018-05-02T10:05:43.627Z,44.69
2018-05-02T10:06:43.792Z,44.12
2018-05-02T10:07:43.952Z,44.69
2018-05-02T10:08:44.117Z,46.12
2018-05-02T10:09:44.355Z,46.31
2018-05-02T10:10:44.397Z,46.12
2018-05-02T10:11:44.572Z,46.03
2018-05-02T10:12:44.833Z,46.61
2018-05-02T10:13:44.911Z,47.94
2018-05-02T10:16:27.500Z,46.89
2018-05-02T10:17:35.514Z,46.44
2018-05-02T10:18:28.945Z,46.62
2018-05-02T10:19:28.058Z,48.61
2018-05-02T10:20:28.221Z,56.68
2018-05-02T10:21:28.477Z,57.64
2018-05-02T10:22:29.660Z,55.94
2018-05-02T10:23:35.904Z,54.89
2018-05-02T10:24:28.955Z,54.50
2018-05-02T10:25:29.083Z,48.85
2018-05-02T10:26:29.252Z,47.42
2018-05-02T10:27:29.418Z,45.79
2018-05-02T10:28:29.642Z,45.40
2018-05-02T10:29:29.689Z,48.66
2018-05-02T10:30:41.372Z,47.13
2018-05-02T10:31:30.794Z,48.18
2018-05-02T10:32:30.179Z,49.05
2018-05-02T10:33:32.279Z,49.43
2018-05-02T10:34:30.563Z,51.92
2018-05-02T10:35:32.270Z,52.11
2018-05-02T10:36:30.945Z,51.54
2018-05-02T10:37:31.111Z,50.38
2018-05-02T10:38:31.280Z,51.44
2018-05-02T10:39:34.263Z,55.05
2018-05-02T10:40:31.560Z,55.63
2018-05-02T10:41:31.726Z,56.49
2018-05-02T10:42:31.890Z,54.96
2018-05-02T10:43:32.057Z,55.05
2018-05-02T10:44:32.227Z,54.19
2018-05-02T10:45:40.410Z,54.22
2018-05-02T10:46:32.560Z,55.27
2018-05-02T10:47:32.700Z,61.31
2018-05-02T10:48:32.869Z,67.72
2018-05-02T10:49:33.025Z,67.63
2018-05-02T10:50:33.277Z,67.82
2018-05-02T10:51:33.362Z,65.05
2018-05-02T10:52:41.088Z,67.44
2018-05-02T10:53:33.666Z,65.91
2018-05-02T10:54:33.869Z,66.00
2018-05-02T10:55:33.986Z,66.86
2018-05-02T10:56:34.180Z,65.14
2018-05-02T10:57:34.334Z,63.64
2018-05-02T10:58:34.492Z,64.12
2018-05-02T10:59:34.660Z,76.48
2018-05-02T11:00:34.871Z,68.52
2018-05-02T11:01:34.998Z,68.62
2018-05-02T11:02:35.164Z,75.62
2018-05-02T11:05:18.435Z,60.00
2018-05-02T11:06:18.656Z,62.01
2018-05-02T11:07:18.796Z,62.68
2018-05-02T11:08:26.688Z,63.45
2018-05-02T11:09:19.162Z,86.07
2018-05-02T11:10:20.093Z,74.95
2018-05-02T11:11:20.595Z,63.26
2018-05-02T11:12:19.674Z,61.34
2018-05-02T11:13:20.488Z,65.75
2018-05-02T11:14:23.123Z,64.31
2018-05-02T11:15:29.247Z,74.79
2018-05-02T11:16:20.341Z,79.49
2018-05-02T11:18:48.520Z,60.15
2018-05-02T11:19:38.726Z,57.06
2018-05-02T11:20:28.657Z,58.01
2018-05-02T11:24:21.554Z,59.06
2018-05-02T11:26:34.434Z,60.86
2018-05-02T11:27:34.543Z,79.68
2018-05-02T11:28:34.758Z,68.46
2018-05-02T11:29:34.858Z,57.92
2018-05-02T11:30:34.983Z,54.56
2018-05-02T11:31:35.149Z,55.42
2018-05-02T11:32:35.315Z,59.26
2018-05-02T11:33:35.540Z,55.42
2018-05-02T11:34:35.665Z,54.94
2018-05-02T11:35:43.239Z,59.74
2018-05-02T11:36:36.058Z,68.59
2018-05-02T11:37:36.096Z,61.30
2018-05-02T11:38:36.408Z,55.26
2018-05-02T11:39:36.503Z,66.19
2018-05-02T11:40:36.775Z,61.21
2018-05-02T11:41:44.282Z,56.92
2018-05-02T11:42:36.959Z,52.95
2018-05-02T11:43:37.127Z,50.58
2018-05-02T11:44:37.307Z,49.52
2018-05-02T11:45:37.589Z,49.12
2018-05-02T11:46:37.621Z,49.79
2018-05-02T11:47:37.788Z,52.86
2018-05-02T11:48:37.959Z,52.86
2018-05-02T11:49:38.125Z,53.79
2018-05-02T11:50:38.511Z,56.38
2018-05-02T11:51:39.369Z,57.65
2018-05-02T11:52:38.646Z,54.30
2018-05-02T11:53:38.790Z,59.09
2018-05-02T11:54:38.979Z,55.83
2018-05-02T11:55:39.219Z,53.34
2018-05-02T11:56:46.973Z,52.00
2018-05-02T11:57:39.584Z,52.95
2018-05-02T11:58:39.672Z,54.75
2018-05-02T11:59:40.452Z,69.52
2018-05-02T12:00:40.048Z,59.64
2018-05-02T12:01:40.194Z,55.55
2018-05-02T12:02:40.435Z,53.31
2018-05-02T12:03:40.518Z,52.55
2018-05-02T12:04:40.686Z,53.50
2018-05-02T12:05:40.852Z,53.89
2018-05-02T12:06:41.021Z,53.12
2018-05-02T12:09:13.290Z,56.19
2018-05-02T12:10:13.480Z,55.33
2018-05-02T12:11:13.629Z,57.03
2018-05-02T12:12:13.813Z,57.60
2018-05-02T12:13:14.125Z,58.27
2018-05-02T12:14:14.168Z,79.55
2018-05-02T12:15:14.338Z,66.93
2018-05-02T12:16:14.500Z,58.33
2018-05-02T12:17:14.707Z,54.49
2018-05-02T12:18:14.934Z,50.84
2018-05-02T12:19:15.092Z,49.31
2018-05-02T12:20:23.241Z,49.12
2018-05-02T12:21:16.355Z,54.88
2018-05-02T12:22:15.506Z,49.60
2018-05-02T12:23:15.691Z,48.25
2018-05-02T12:24:15.858Z,46.72
2018-05-02T12:25:16.044Z,47.39
2018-05-02T12:26:16.195Z,46.34
2018-05-02T12:27:16.368Z,45.67
2018-05-02T12:28:16.533Z,44.42
2018-05-02T12:29:16.699Z,44.51
2018-05-02T12:30:17.862Z,45.16
2018-05-02T12:31:17.861Z,46.24
2018-05-02T12:32:17.140Z,46.53
2018-05-02T12:33:17.307Z,45.00
2018-05-02T12:34:17.471Z,43.55
2018-05-02T12:35:17.665Z,42.86
2018-05-02T12:37:49.920Z,45.28
2018-05-02T12:38:50.086Z,46.62
2018-05-02T12:39:50.272Z,46.24
2018-05-02T12:40:50.434Z,42.11
2018-05-02T12:41:50.585Z,41.54
2018-05-02T12:42:50.805Z,40.87
2018-05-02T12:43:50.909Z,41.44
2018-05-02T12:44:51.078Z,41.04
2018-05-02T12:45:51.244Z,41.80
2018-05-02T12:46:51.410Z,42.19
2018-05-02T12:47:51.570Z,43.05
2018-05-02T12:50:24.425Z,41.23
2018-05-02T12:51:23.953Z,40.56
2018-05-02T12:52:24.121Z,55.35
2018-05-02T12:53:31.441Z,45.00
2018-05-02T12:54:25.396Z,43.65
2018-05-02T12:55:24.693Z,41.08
2018-05-02T12:56:24.864Z,38.78
2018-05-02T12:57:25.014Z,38.85
2018-05-02T12:58:25.183Z,39.04
2018-05-02T12:59:25.348Z,41.16
2018-05-02T13:00:25.522Z,40.58
2018-05-02T13:01:25.686Z,40.67
2018-05-02T13:02:25.867Z,42.98
2018-05-02T13:03:26.031Z,40.48
2018-05-02T13:04:26.193Z,39.72
2018-05-02T13:05:26.363Z,41.54
2018-05-02T13:06:26.547Z,40.67
2018-05-02T13:07:26.693Z,40.29
2018-05-02T13:10:08.960Z,40.48
2018-05-02T13:11:09.127Z,40.29
2018-05-02T13:12:09.289Z,41.04
2018-05-02T13:13:09.489Z,40.37
2018-05-02T13:14:19.025Z,40.27
2018-05-02T13:15:09.880Z,39.79
2018-05-02T13:16:09.998Z,40.37
2018-05-02T13:17:10.192Z,39.98
2018-05-02T13:18:10.359Z,39.79
2018-05-02T13:19:10.536Z,39.91
2018-05-02T13:20:10.702Z,39.72
2018-05-02T13:21:10.864Z,38.64
2018-05-02T13:22:11.033Z,38.54
2018-05-02T13:23:11.188Z,39.62
2018-05-02T13:24:11.360Z,41.63
2018-05-02T13:25:11.530Z,40.20
2018-05-02T13:26:11.901Z,39.33
2018-05-02T13:27:11.911Z,39.64
2018-05-02T13:28:12.083Z,38.28
2018-05-02T13:30:54.337Z,38.37
2018-05-02T13:31:55.362Z,42.61
2018-05-02T13:32:55.372Z,38.49
2018-05-02T13:33:54.775Z,39.73
2018-05-02T13:34:54.957Z,38.59
2018-05-02T13:35:55.102Z,39.28
2018-05-02T13:36:55.288Z,36.97
2018-05-02T13:37:55.471Z,35.99
2018-05-02T13:39:03.104Z,35.80
2018-05-02T13:39:55.777Z,35.88
2018-05-02T13:40:56.882Z,36.07
2018-05-02T13:41:56.887Z,36.46
2018-05-02T13:42:56.172Z,36.74
2018-05-02T13:43:56.350Z,36.65
2018-05-02T13:44:57.387Z,37.41
2018-05-02T13:45:56.709Z,38.37
2018-05-02T13:46:56.831Z,37.03
2018-05-02T13:47:57.008Z,37.41
2018-05-02T13:48:57.889Z,37.99
2018-05-02T13:49:57.303Z,37.41
2018-05-02T13:50:57.470Z,37.89
2018-05-02T13:51:57.634Z,37.51
2018-05-02T13:52:58.387Z,37.80
2018-05-02T13:55:42.088Z,36.93
2018-05-02T13:56:44.062Z,37.60
2018-05-02T13:57:42.366Z,37.80
2018-05-02T13:58:44.102Z,35.59
2018-05-02T13:59:42.721Z,34.15
2018-05-02T14:00:42.899Z,36.65
2018-05-02T14:01:43.058Z,35.61
2018-05-02T14:02:43.228Z,36.28
2018-05-02T14:03:51.351Z,36.38
2018-05-02T14:04:43.515Z,35.42
2018-05-02T14:05:43.666Z,35.32
2018-05-02T14:06:43.851Z,36.47
2018-05-02T14:07:44.022Z,38.59
2018-05-02T14:08:44.267Z,36.88
2018-05-02T14:09:44.331Z,36.09
2018-05-02T14:12:16.436Z,36.95
2018-05-02T14:13:16.484Z,36.86
2018-05-02T14:14:16.667Z,36.95
2018-05-02T14:15:16.835Z,37.13
2018-05-02T14:16:17.004Z,37.43
2018-05-02T14:17:17.173Z,36.84
2018-05-02T14:18:17.324Z,37.32
2018-05-02T14:19:25.181Z,38.09
2018-05-02T14:20:17.719Z,38.28
2018-05-02T14:21:17.885Z,39.93
2018-05-02T14:22:18.076Z,38.68
2018-05-02T14:23:18.267Z,39.93
2018-05-02T14:24:18.378Z,39.06